DPV2202 SBFL-SBCX
Flight info
| Callsign | DPV2202 |
|---|---|
| Flight time | 0h 36m |
| Altitude | 30000 |
| Route | UGREV DCT VUKMO |
| Aircraft | A20N/M-SDE2E3FGHIRWXY/LB1 |
Departure
| Time | 2026-04-17 00:07 |
|---|---|
| Airport | Hercílio Luz International Airport (SBFL) |
Arrival
| Time | 2026-04-17 00:43 |
|---|---|
| Airport | Hugo Cantergiani Regional Airport (SBCX) |
| Time | Latitude | Longitude | Altitude | Speed | Heading |
|---|---|---|---|---|---|
| 2026-04-16 23:38 | -27.67289 | -48.54510 | 33 ft | 0 kts | 210° |
| 2026-04-16 23:52 | -27.67277 | -48.54502 | 33 ft | 2 kts | 210° |
| 2026-04-16 23:53 | -27.67269 | -48.54497 | 33 ft | 1 kts | 211° |
| 2026-04-16 23:53 | -27.67255 | -48.54493 | 33 ft | 2 kts | 166° |
| 2026-04-16 23:53 | -27.67243 | -48.54501 | 33 ft | 1 kts | 127° |
| 2026-04-16 23:53 | -27.67240 | -48.54506 | 33 ft | 1 kts | 117° |
| 2026-04-16 23:54 | -27.67238 | -48.54509 | 33 ft | 0 kts | 121° |
| 2026-04-16 23:58 | -27.67239 | -48.54508 | 33 ft | 0 kts | 120° |
| 2026-04-16 23:58 | -27.67245 | -48.54497 | 33 ft | 2 kts | 120° |
| 2026-04-16 23:58 | -27.67255 | -48.54476 | 33 ft | 3 kts | 120° |
| 2026-04-16 23:59 | -27.67271 | -48.54447 | 33 ft | 4 kts | 120° |
| 2026-04-16 23:59 | -27.67286 | -48.54416 | 33 ft | 0 kts | 115° |
| 2026-04-16 23:59 | -27.67285 | -48.54410 | 33 ft | 0 kts | 64° |
| 2026-04-16 23:59 | -27.67275 | -48.54398 | 33 ft | 2 kts | 49° |
| 2026-04-17 00:00 | -27.67261 | -48.54378 | 33 ft | 3 kts | 50° |
| 2026-04-17 00:00 | -27.67240 | -48.54353 | 33 ft | 4 kts | 35° |
| 2026-04-17 00:00 | -27.67211 | -48.54329 | 33 ft | 5 kts | 51° |
| 2026-04-17 00:00 | -27.67207 | -48.54286 | 33 ft | 6 kts | 109° |
| 2026-04-17 00:01 | -27.67230 | -48.54239 | 33 ft | 7 kts | 120° |
| 2026-04-17 00:01 | -27.67260 | -48.54190 | 33 ft | 8 kts | 121° |
| 2026-04-17 00:01 | -27.67281 | -48.54136 | 33 ft | 0 kts | 68° |
| 2026-04-17 00:01 | -27.67280 | -48.54130 | 33 ft | 2 kts | 86° |
| 2026-04-17 00:02 | -27.67306 | -48.54084 | 33 ft | 10 kts | 129° |
| 2026-04-17 00:02 | -27.67353 | -48.54011 | 33 ft | 11 kts | 122° |
| 2026-04-17 00:02 | -27.67397 | -48.53928 | 33 ft | 12 kts | 118° |
| 2026-04-17 00:02 | -27.67444 | -48.53841 | 33 ft | 13 kts | 123° |
| 2026-04-17 00:03 | -27.67494 | -48.53751 | 33 ft | 13 kts | 122° |
| 2026-04-17 00:03 | -27.67544 | -48.53655 | 32 ft | 14 kts | 122° |
| 2026-04-17 00:03 | -27.67599 | -48.53557 | 32 ft | 15 kts | 122° |
| 2026-04-17 00:03 | -27.67654 | -48.53451 | 32 ft | 16 kts | 121° |
| 2026-04-17 00:04 | -27.67716 | -48.53336 | 32 ft | 17 kts | 120° |
| 2026-04-17 00:04 | -27.67776 | -48.53225 | 31 ft | 9 kts | 121° |
| 2026-04-17 00:04 | -27.67786 | -48.53155 | 31 ft | 8 kts | 70° |
| 2026-04-17 00:04 | -27.67766 | -48.53128 | 31 ft | 0 kts | 38° |
| 2026-04-17 00:05 | -27.67760 | -48.53122 | 31 ft | 2 kts | 37° |
| 2026-04-17 00:05 | -27.67730 | -48.53099 | 31 ft | 11 kts | 32° |
| 2026-04-17 00:06 | -27.67672 | -48.53082 | 31 ft | 8 kts | 345° |
| 2026-04-17 00:06 | -27.67587 | -48.53219 | 31 ft | 50 kts | 302° |
| 2026-04-17 00:06 | -27.67275 | -48.53796 | 33 ft | 118 kts | 301° |
| 2026-04-17 00:06 | -27.66751 | -48.54765 | 68 ft | 167 kts | 305° |
| 2026-04-17 00:07 | -27.66114 | -48.55889 | 621 ft | 171 kts | 304° |
| 2026-04-17 00:07 | -27.65516 | -48.57087 | 1170 ft | 183 kts | 302° |
| 2026-04-17 00:07 | -27.64890 | -48.58400 | 1658 ft | 200 kts | 302° |
| 2026-04-17 00:07 | -27.64221 | -48.59838 | 2142 ft | 217 kts | 302° |
| 2026-04-17 00:08 | -27.63482 | -48.61412 | 2520 ft | 238 kts | 302° |
| 2026-04-17 00:08 | -27.62672 | -48.63125 | 3019 ft | 255 kts | 302° |
| 2026-04-17 00:08 | -27.61824 | -48.64885 | 3767 ft | 260 kts | 304° |
| 2026-04-17 00:08 | -27.60843 | -48.66598 | 4653 ft | 260 kts | 306° |
| 2026-04-17 00:09 | -27.59850 | -48.68290 | 5472 ft | 263 kts | 304° |
| 2026-04-17 00:09 | -27.58830 | -48.70009 | 6295 ft | 266 kts | 304° |
| 2026-04-17 00:09 | -27.57809 | -48.71733 | 7066 ft | 269 kts | 304° |
| 2026-04-17 00:09 | -27.56771 | -48.73497 | 7638 ft | 272 kts | 303° |
| 2026-04-17 00:10 | -27.55718 | -48.75295 | 7957 ft | 273 kts | 303° |
| 2026-04-17 00:10 | -27.54953 | -48.77237 | 7996 ft | 274 kts | 278° |
| 2026-04-17 00:10 | -27.55146 | -48.79354 | 8017 ft | 276 kts | 251° |
| 2026-04-17 00:10 | -27.56174 | -48.81160 | 8030 ft | 281 kts | 226° |
| 2026-04-17 00:11 | -27.57870 | -48.82305 | 8027 ft | 288 kts | 199° |
| 2026-04-17 00:11 | -27.59819 | -48.82832 | 8043 ft | 291 kts | 195° |
| 2026-04-17 00:11 | -27.61816 | -48.83326 | 8040 ft | 291 kts | 195° |
| 2026-04-17 00:11 | -27.63806 | -48.83831 | 8042 ft | 291 kts | 195° |
| 2026-04-17 00:12 | -27.65772 | -48.84341 | 8044 ft | 291 kts | 196° |
| 2026-04-17 00:12 | -27.67764 | -48.84869 | 8048 ft | 291 kts | 196° |
| 2026-04-17 00:12 | -27.69710 | -48.85389 | 8050 ft | 291 kts | 196° |
| 2026-04-17 00:12 | -27.71709 | -48.85927 | 8053 ft | 291 kts | 196° |
| 2026-04-17 00:13 | -27.73682 | -48.86457 | 8051 ft | 291 kts | 196° |
| 2026-04-17 00:13 | -27.75649 | -48.86968 | 8065 ft | 294 kts | 193° |
| 2026-04-17 00:13 | -27.77685 | -48.87400 | 8473 ft | 301 kts | 192° |
| 2026-04-17 00:13 | -27.79734 | -48.87814 | 9368 ft | 300 kts | 192° |
| 2026-04-17 00:14 | -27.81794 | -48.88229 | 10198 ft | 302 kts | 192° |
| 2026-04-17 00:14 | -27.83896 | -48.88653 | 10740 ft | 314 kts | 193° |
| 2026-04-17 00:14 | -27.86104 | -48.89103 | 11102 ft | 332 kts | 193° |
| 2026-04-17 00:14 | -27.88416 | -48.89576 | 11428 ft | 349 kts | 193° |
| 2026-04-17 00:15 | -27.90895 | -48.90080 | 11730 ft | 367 kts | 192° |
| 2026-04-17 00:15 | -27.93447 | -48.90600 | 12011 ft | 384 kts | 192° |
| 2026-04-17 00:15 | -27.96144 | -48.91149 | 12376 ft | 396 kts | 192° |
| 2026-04-17 00:15 | -27.98875 | -48.91703 | 12987 ft | 401 kts | 193° |
| 2026-04-17 00:16 | -28.01623 | -48.92260 | 13642 ft | 403 kts | 193° |
| 2026-04-17 00:16 | -28.04403 | -48.92826 | 14257 ft | 406 kts | 193° |
| 2026-04-17 00:16 | -28.07166 | -48.93389 | 14840 ft | 409 kts | 193° |
| 2026-04-17 00:16 | -28.09982 | -48.93966 | 15423 ft | 411 kts | 193° |
| 2026-04-17 00:17 | -28.12812 | -48.94541 | 15984 ft | 414 kts | 193° |
| 2026-04-17 00:17 | -28.15647 | -48.95117 | 16533 ft | 416 kts | 193° |
| 2026-04-17 00:17 | -28.18497 | -48.95779 | 17059 ft | 416 kts | 200° |
| 2026-04-17 00:17 | -28.21076 | -48.97223 | 17560 ft | 412 kts | 218° |
| 2026-04-17 00:18 | -28.23080 | -48.99461 | 18061 ft | 409 kts | 236° |
| 2026-04-17 00:18 | -28.24426 | -49.02283 | 18551 ft | 408 kts | 248° |
| 2026-04-17 00:18 | -28.25513 | -49.05272 | 19014 ft | 411 kts | 249° |
| 2026-04-17 00:18 | -28.26603 | -49.08279 | 19438 ft | 415 kts | 248° |
| 2026-04-17 00:19 | -28.27707 | -49.11314 | 19889 ft | 417 kts | 248° |
| 2026-04-17 00:19 | -28.28809 | -49.14334 | 20342 ft | 420 kts | 248° |
| 2026-04-17 00:19 | -28.29922 | -49.17377 | 20787 ft | 422 kts | 248° |
| 2026-04-17 00:19 | -28.31055 | -49.20470 | 21226 ft | 424 kts | 248° |
| 2026-04-17 00:20 | -28.32199 | -49.23587 | 21652 ft | 426 kts | 248° |
| 2026-04-17 00:20 | -28.33325 | -49.26662 | 22048 ft | 429 kts | 248° |
| 2026-04-17 00:20 | -28.34467 | -49.29781 | 22443 ft | 431 kts | 248° |
| 2026-04-17 00:20 | -28.35618 | -49.32921 | 22870 ft | 433 kts | 247° |
| 2026-04-17 00:21 | -28.36785 | -49.36112 | 23280 ft | 435 kts | 247° |
| 2026-04-17 00:21 | -28.37917 | -49.39247 | 23664 ft | 437 kts | 249° |
| 2026-04-17 00:21 | -28.39007 | -49.42489 | 23912 ft | 438 kts | 249° |
| 2026-04-17 00:21 | -28.40048 | -49.45672 | 23938 ft | 420 kts | 250° |
| 2026-04-17 00:22 | -28.42042 | -49.51796 | 23953 ft | 413 kts | 250° |
| 2026-04-17 00:22 | -28.43036 | -49.54847 | 23957 ft | 412 kts | 250° |
| 2026-04-17 00:22 | -28.44028 | -49.57883 | 23963 ft | 413 kts | 250° |
| 2026-04-17 00:23 | -28.45030 | -49.60950 | 23976 ft | 413 kts | 250° |
| 2026-04-17 00:23 | -28.46029 | -49.64006 | 23986 ft | 412 kts | 250° |
| 2026-04-17 00:23 | -28.46998 | -49.66980 | 23995 ft | 413 kts | 250° |
| 2026-04-17 00:23 | -28.47991 | -49.70038 | 24004 ft | 412 kts | 250° |
| 2026-04-17 00:24 | -28.48866 | -49.72733 | 24009 ft | 413 kts | 250° |
| 2026-04-17 00:24 | -28.49688 | -49.75261 | 24017 ft | 413 kts | 250° |
| 2026-04-17 00:24 | -28.50814 | -49.78722 | 24021 ft | 413 kts | 250° |
| 2026-04-17 00:24 | -28.51808 | -49.81782 | 24020 ft | 413 kts | 250° |
| 2026-04-17 00:25 | -28.52796 | -49.84819 | 24021 ft | 413 kts | 250° |
| 2026-04-17 00:25 | -28.53794 | -49.87888 | 24026 ft | 412 kts | 250° |
| 2026-04-17 00:25 | -28.54780 | -49.90926 | 24019 ft | 412 kts | 250° |
| 2026-04-17 00:25 | -28.55574 | -49.93376 | 24023 ft | 412 kts | 250° |
| 2026-04-17 00:26 | -28.56413 | -49.95964 | 24024 ft | 412 kts | 250° |
| 2026-04-17 00:26 | -28.57397 | -49.99001 | 24027 ft | 411 kts | 250° |
| 2026-04-17 00:26 | -28.58386 | -50.02059 | 24028 ft | 411 kts | 250° |
| 2026-04-17 00:26 | -28.59376 | -50.05116 | 24028 ft | 411 kts | 250° |
| 2026-04-17 00:27 | -28.60356 | -50.08154 | 24031 ft | 411 kts | 250° |
| 2026-04-17 00:27 | -28.61342 | -50.11206 | 24026 ft | 411 kts | 250° |
| 2026-04-17 00:27 | -28.62321 | -50.14240 | 23996 ft | 411 kts | 250° |
| 2026-04-17 00:27 | -28.63304 | -50.17292 | 23567 ft | 410 kts | 250° |
| 2026-04-17 00:28 | -28.64283 | -50.20329 | 23068 ft | 407 kts | 250° |
| 2026-04-17 00:28 | -28.65246 | -50.23323 | 22554 ft | 403 kts | 250° |
| 2026-04-17 00:28 | -28.66204 | -50.26303 | 22057 ft | 400 kts | 250° |
| 2026-04-17 00:28 | -28.67154 | -50.29259 | 21536 ft | 397 kts | 250° |
| 2026-04-17 00:29 | -28.68089 | -50.32169 | 21008 ft | 395 kts | 251° |
| 2026-04-17 00:29 | -28.69037 | -50.35130 | 20476 ft | 393 kts | 251° |
| 2026-04-17 00:29 | -28.69963 | -50.38021 | 19939 ft | 391 kts | 251° |
| 2026-04-17 00:29 | -28.70883 | -50.40897 | 19421 ft | 388 kts | 251° |
| 2026-04-17 00:30 | -28.71808 | -50.43790 | 18899 ft | 386 kts | 251° |
| 2026-04-17 00:30 | -28.72723 | -50.46654 | 18391 ft | 383 kts | 251° |
| 2026-04-17 00:30 | -28.73621 | -50.49469 | 17881 ft | 380 kts | 251° |
| 2026-04-17 00:30 | -28.74516 | -50.52273 | 17376 ft | 378 kts | 251° |
| 2026-04-17 00:31 | -28.75411 | -50.55079 | 16875 ft | 375 kts | 251° |
| 2026-04-17 00:31 | -28.76294 | -50.57854 | 16374 ft | 373 kts | 251° |
| 2026-04-17 00:31 | -28.77179 | -50.60632 | 15878 ft | 370 kts | 252° |
| 2026-04-17 00:31 | -28.78044 | -50.63351 | 15385 ft | 368 kts | 252° |
| 2026-04-17 00:32 | -28.78913 | -50.66089 | 14890 ft | 365 kts | 252° |
| 2026-04-17 00:32 | -28.79780 | -50.68837 | 14393 ft | 363 kts | 253° |
| 2026-04-17 00:32 | -28.80631 | -50.71532 | 13905 ft | 360 kts | 253° |
| 2026-04-17 00:32 | -28.81465 | -50.74169 | 13428 ft | 358 kts | 253° |
| 2026-04-17 00:33 | -28.82314 | -50.76854 | 12934 ft | 356 kts | 253° |
| 2026-04-17 00:33 | -28.83143 | -50.79475 | 12436 ft | 354 kts | 253° |
| 2026-04-17 00:33 | -28.83970 | -50.82090 | 11922 ft | 353 kts | 253° |
| 2026-04-17 00:33 | -28.84805 | -50.84734 | 11401 ft | 351 kts | 253° |
| 2026-04-17 00:34 | -28.85630 | -50.87346 | 10890 ft | 350 kts | 254° |
| 2026-04-17 00:34 | -28.86444 | -50.89927 | 10443 ft | 346 kts | 254° |
| 2026-04-17 00:34 | -28.87247 | -50.92465 | 10302 ft | 331 kts | 255° |
| 2026-04-17 00:34 | -28.88006 | -50.94867 | 10187 ft | 317 kts | 255° |
| 2026-04-17 00:35 | -28.88728 | -50.97151 | 10082 ft | 304 kts | 255° |
| 2026-04-17 00:35 | -28.89429 | -50.99382 | 9998 ft | 290 kts | 255° |
| 2026-04-17 00:35 | -28.90098 | -51.01512 | 9768 ft | 283 kts | 256° |
| 2026-04-17 00:35 | -28.90756 | -51.03615 | 9416 ft | 281 kts | 256° |
| 2026-04-17 00:36 | -28.91412 | -51.05717 | 9082 ft | 279 kts | 256° |
| 2026-04-17 00:36 | -28.92055 | -51.07775 | 8759 ft | 276 kts | 256° |
| 2026-04-17 00:36 | -28.92703 | -51.09842 | 8432 ft | 274 kts | 255° |
| 2026-04-17 00:36 | -28.93341 | -51.11881 | 8111 ft | 271 kts | 256° |
| 2026-04-17 00:37 | -28.93973 | -51.13897 | 7797 ft | 269 kts | 256° |
| 2026-04-17 00:37 | -28.94596 | -51.15883 | 7490 ft | 266 kts | 256° |
| 2026-04-17 00:37 | -28.95215 | -51.17858 | 7180 ft | 264 kts | 256° |
| 2026-04-17 00:37 | -28.95826 | -51.19817 | 6881 ft | 262 kts | 256° |
| 2026-04-17 00:38 | -28.96441 | -51.21788 | 6568 ft | 260 kts | 256° |
| 2026-04-17 00:38 | -28.97042 | -51.23712 | 6257 ft | 258 kts | 256° |
| 2026-04-17 00:38 | -28.97643 | -51.25636 | 5966 ft | 255 kts | 255° |
| 2026-04-17 00:38 | -28.98515 | -51.27409 | 5670 ft | 260 kts | 232° |
| 2026-04-17 00:39 | -28.99984 | -51.28635 | 5397 ft | 264 kts | 211° |
| 2026-04-17 00:39 | -29.01621 | -51.29518 | 5320 ft | 253 kts | 209° |
| 2026-04-17 00:39 | -29.03188 | -51.30330 | 5303 ft | 244 kts | 209° |
| 2026-04-17 00:39 | -29.04738 | -51.31151 | 5270 ft | 244 kts | 209° |
| 2026-04-17 00:40 | -29.06291 | -51.31954 | 5202 ft | 246 kts | 202° |
| 2026-04-17 00:40 | -29.07983 | -51.32070 | 5021 ft | 250 kts | 163° |
| 2026-04-17 00:40 | -29.09439 | -51.30999 | 4902 ft | 249 kts | 131° |
| 2026-04-17 00:40 | -29.10554 | -51.29484 | 4773 ft | 251 kts | 127° |
| 2026-04-17 00:41 | -29.11667 | -51.27963 | 4593 ft | 251 kts | 130° |
| 2026-04-17 00:41 | -29.12861 | -51.26479 | 4217 ft | 254 kts | 133° |
| 2026-04-17 00:41 | -29.14074 | -51.25073 | 3865 ft | 240 kts | 134° |
| 2026-04-17 00:41 | -29.15220 | -51.23788 | 3563 ft | 221 kts | 134° |
| 2026-04-17 00:42 | -29.16307 | -51.22581 | 3359 ft | 210 kts | 134° |
| 2026-04-17 00:42 | -29.17320 | -51.21460 | 3102 ft | 193 kts | 134° |
| 2026-04-17 00:42 | -29.18231 | -51.20451 | 2854 ft | 176 kts | 135° |
| 2026-04-17 00:42 | -29.19067 | -51.19485 | 2528 ft | 165 kts | 135° |
| 2026-04-17 00:43 | -29.19826 | -51.18646 | 2447 ft | 121 kts | 141° |
| 2026-04-17 00:43 | -29.20214 | -51.18214 | 2439 ft | 34 kts | 135° |
| 2026-04-17 00:43 | -29.20291 | -51.18114 | 2437 ft | 6 kts | 117° |
| 2026-04-17 00:43 | -29.20306 | -51.18088 | 2437 ft | 1 kts | 157° |
| 2026-04-17 00:44 | -29.20311 | -51.18091 | 2437 ft | 0 kts | 234° |
| 2026-04-17 00:44 | -29.20308 | -51.18098 | 2437 ft | 1 kts | 304° |
| 2026-04-17 00:44 | -29.20300 | -51.18111 | 2437 ft | 2 kts | 303° |
| 2026-04-17 00:44 | -29.20271 | -51.18152 | 2437 ft | 10 kts | 314° |
| 2026-04-17 00:45 | -29.20199 | -51.18234 | 2439 ft | 18 kts | 317° |
| 2026-04-17 00:45 | -29.20101 | -51.18332 | 2440 ft | 17 kts | 316° |
| 2026-04-17 00:45 | -29.20020 | -51.18428 | 2442 ft | 16 kts | 314° |
| 2026-04-17 00:45 | -29.19941 | -51.18516 | 2444 ft | 15 kts | 316° |
| 2026-04-17 00:46 | -29.19865 | -51.18599 | 2445 ft | 14 kts | 317° |
| 2026-04-17 00:46 | -29.19795 | -51.18675 | 2447 ft | 13 kts | 314° |
| 2026-04-17 00:46 | -29.19738 | -51.18742 | 2449 ft | 12 kts | 314° |
| 2026-04-17 00:46 | -29.19685 | -51.18802 | 2451 ft | 10 kts | 317° |
| 2026-04-17 00:47 | -29.19645 | -51.18836 | 2452 ft | 6 kts | 342° |
| 2026-04-17 00:47 | -29.19604 | -51.18822 | 2452 ft | 6 kts | 37° |
| 2026-04-17 00:47 | -29.19574 | -51.18790 | 2452 ft | 6 kts | 43° |
| 2026-04-17 00:47 | -29.19567 | -51.18782 | 2452 ft | 1 kts | 40° |
| 2026-04-17 00:48 | -29.19551 | -51.18777 | 2452 ft | 3 kts | 6° |
| 2026-04-17 00:48 | -29.19533 | -51.18767 | 2452 ft | 2 kts | 39° |
| 2026-04-17 00:48 | -29.19521 | -51.18753 | 2452 ft | 1 kts | 50° |
| 2026-04-17 00:48 | -29.19517 | -51.18748 | 2452 ft | 0 kts | 49° |
| 2026-04-17 00:49 | -29.19517 | -51.18747 | 2452 ft | 0 kts | 49° |